sensor_id;sensor_type;location;lat;lon;timestamp;temperature;humidity
8422;DHT22;4248;48.196;10.924;2022-11-11T00:00:28;3.50;68.30
8422;DHT22;4248;48.196;10.924;2022-11-11T00:02:57;3.50;67.30
8422;DHT22;4248;48.196;10.924;2022-11-11T00:05:24;3.50;68.30
8422;DHT22;4248;48.196;10.924;2022-11-11T00:07:56;3.50;68.20
8422;DHT22;4248;48.196;10.924;2022-11-11T00:10:26;3.50;68.30
8422;DHT22;4248;48.196;10.924;2022-11-11T00:12:52;3.50;67.20
8422;DHT22;4248;48.196;10.924;2022-11-11T00:15:17;3.50;68.40
8422;DHT22;4248;48.196;10.924;2022-11-11T00:17:43;3.50;68.40
8422;DHT22;4248;48.196;10.924;2022-11-11T00:20:27;3.50;68.40
8422;DHT22;4248;48.196;10.924;2022-11-11T00:23:22;3.40;67.20
8422;DHT22;4248;48.196;10.924;2022-11-11T00:26:08;3.50;68.40
8422;DHT22;4248;48.196;10.924;2022-11-11T00:28:34;3.50;68.30
8422;DHT22;4248;48.196;10.924;2022-11-11T00:31:09;3.50;68.40
8422;DHT22;4248;48.196;10.924;2022-11-11T00:33:35;3.90;68.70
8422;DHT22;4248;48.196;10.924;2022-11-11T00:36:02;3.50;68.40
8422;DHT22;4248;48.196;10.924;2022-11-11T00:38:27;3.50;68.40
8422;DHT22;4248;48.196;10.924;2022-11-11T00:41:13;3.50;68.30
8422;DHT22;4248;48.196;10.924;2022-11-11T00:43:40;3.50;68.40
8422;DHT22;4248;48.196;10.924;2022-11-11T00:46:06;3.40;68.30
8422;DHT22;4248;48.196;10.924;2022-11-11T00:48:50;3.40;68.40
8422;DHT22;4248;48.196;10.924;2022-11-11T00:51:34;3.40;68.70
8422;DHT22;4248;48.196;10.924;2022-11-11T00:54:00;3.30;68.70
8422;DHT22;4248;48.196;10.924;2022-11-11T00:56:26;3.20;68.80
8422;DHT22;4248;48.196;10.924;2022-11-11T00:58:52;3.20;68.80
8422;DHT22;4248;48.196;10.924;2022-11-11T01:01:17;3.10;68.80
8422;DHT22;4248;48.196;10.924;2022-11-11T01:03:43;3.10;68.80
8422;DHT22;4248;48.196;10.924;2022-11-11T01:06:11;3.10;68.80
8422;DHT22;4248;48.196;10.924;2022-11-11T01:08:37;3.00;68.70
8422;DHT22;4248;48.196;10.924;2022-11-11T01:11:03;3.00;68.80
8422;DHT22;4248;48.196;10.924;2022-11-11T01:13:31;3.00;68.90
8422;DHT22;4248;48.196;10.924;2022-11-11T01:16:01;2.90;69.00
8422;DHT22;4248;48.196;10.924;2022-11-11T01:18:27;2.90;69.20
8422;DHT22;4248;48.196;10.924;2022-11-11T01:23:34;2.80;69.00
8422;DHT22;4248;48.196;10.924;2022-11-11T01:28:41;2.80;69.00
8422;DHT22;4248;48.196;10.924;2022-11-11T01:31:12;2.80;67.70
8422;DHT22;4248;48.196;10.924;2022-11-11T01:33:38;2.90;68.80
8422;DHT22;4248;48.196;10.924;2022-11-11T01:36:07;2.90;68.50
8422;DHT22;4248;48.196;10.924;2022-11-11T01:38:33;3.00;68.20
8422;DHT22;4248;48.196;10.924;2022-11-11T01:40:58;3.20;67.00
8422;DHT22;4248;48.196;10.924;2022-11-11T01:43:24;3.20;68.00
8422;DHT22;4248;48.196;10.924;2022-11-11T01:45:58;3.40;67.90
8422;DHT22;4248;48.196;10.924;2022-11-11T01:48:38;3.20;67.70
8422;DHT22;4248;48.196;10.924;2022-11-11T01:51:35;3.20;67.60
8422;DHT22;4248;48.196;10.924;2022-11-11T01:54:05;3.20;67.80
8422;DHT22;4248;48.196;10.924;2022-11-11T01:56:33;3.20;68.00
8422;DHT22;4248;48.196;10.924;2022-11-11T01:59:02;3.10;68.10
8422;DHT22;4248;48.196;10.924;2022-11-11T02:01:32;3.10;67.10
8422;DHT22;4248;48.196;10.924;2022-11-11T02:04:00;3.10;68.20
8422;DHT22;4248;48.196;10.924;2022-11-11T02:07:04;3.10;68.30
8422;DHT22;4248;48.196;10.924;2022-11-11T02:09:32;3.10;68.30
8422;DHT22;4248;48.196;10.924;2022-11-11T02:12:00;3.00;67.20
8422;DHT22;4248;48.196;10.924;2022-11-11T02:14:49;3.10;68.30
8422;DHT22;4248;48.196;10.924;2022-11-11T02:17:16;3.00;68.20
8422;DHT22;4248;48.196;10.924;2022-11-11T02:20:11;3.10;68.20
8422;DHT22;4248;48.196;10.924;2022-11-11T02:22:52;3.10;67.10
8422;DHT22;4248;48.196;10.924;2022-11-11T02:25:24;3.10;68.20
8422;DHT22;4248;48.196;10.924;2022-11-11T02:27:51;3.10;69.20
8422;DHT22;4248;48.196;10.924;2022-11-11T02:30:19;3.20;68.00
8422;DHT22;4248;48.196;10.924;2022-11-11T02:32:51;3.20;66.80
8422;DHT22;4248;48.196;10.924;2022-11-11T02:35:41;3.30;68.00
8422;DHT22;4248;48.196;10.924;2022-11-11T02:38:09;3.10;67.90
8422;DHT22;4248;48.196;10.924;2022-11-11T02:40:41;3.00;67.10
8422;DHT22;4248;48.196;10.924;2022-11-11T02:43:25;3.10;68.40
8422;DHT22;4248;48.196;10.924;2022-11-11T02:45:52;3.00;68.20
8422;DHT22;4248;48.196;10.924;2022-11-11T02:48:17;3.00;68.40
8422;DHT22;4248;48.196;10.924;2022-11-11T02:50:43;2.90;67.50
8422;DHT22;4248;48.196;10.924;2022-11-11T02:53:08;2.90;68.60
8422;DHT22;4248;48.196;10.924;2022-11-11T02:55:34;2.90;68.60
8422;DHT22;4248;48.196;10.924;2022-11-11T02:58:00;2.90;68.60
8422;DHT22;4248;48.196;10.924;2022-11-11T03:00:26;2.90;69.70
8422;DHT22;4248;48.196;10.924;2022-11-11T03:02:51;2.90;67.50
8422;DHT22;4248;48.196;10.924;2022-11-11T03:05:17;2.90;68.50
8422;DHT22;4248;48.196;10.924;2022-11-11T03:07:43;2.90;68.40
8422;DHT22;4248;48.196;10.924;2022-11-11T03:10:08;2.90;68.40
8422;DHT22;4248;48.196;10.924;2022-11-11T03:12:34;2.90;67.30
8422;DHT22;4248;48.196;10.924;2022-11-11T03:15:00;2.90;68.20
8422;DHT22;4248;48.196;10.924;2022-11-11T03:17:25;3.00;68.20
8422;DHT22;4248;48.196;10.924;2022-11-11T03:20:10;3.00;68.20
8422;DHT22;4248;48.196;10.924;2022-11-11T03:23:02;3.00;67.00
8422;DHT22;4248;48.196;10.924;2022-11-11T03:25:28;3.00;68.20
8422;DHT22;4248;48.196;10.924;2022-11-11T03:28:05;3.00;68.30
8422;DHT22;4248;48.196;10.924;2022-11-11T03:30:31;2.90;68.20
8422;DHT22;4248;48.196;10.924;2022-11-11T03:32:58;2.90;67.30
8422;DHT22;4248;48.196;10.924;2022-11-11T03:35:24;2.80;68.40
8422;DHT22;4248;48.196;10.924;2022-11-11T03:37:49;2.80;68.50
8422;DHT22;4248;48.196;10.924;2022-11-11T03:40:33;2.80;68.60
8422;DHT22;4248;48.196;10.924;2022-11-11T03:42:59;2.80;67.60
8422;DHT22;4248;48.196;10.924;2022-11-11T03:45:25;2.80;68.70
8422;DHT22;4248;48.196;10.924;2022-11-11T03:47:50;2.80;68.40
8422;DHT22;4248;48.196;10.924;2022-11-11T03:50:16;2.90;68.30
8422;DHT22;4248;48.196;10.924;2022-11-11T03:52:42;3.00;67.00
8422;DHT22;4248;48.196;10.924;2022-11-11T03:55:08;3.00;67.70
8422;DHT22;4248;48.196;10.924;2022-11-11T03:57:41;3.00;67.40
8422;DHT22;4248;48.196;10.924;2022-11-11T04:00:07;3.00;67.40
8422;DHT22;4248;48.196;10.924;2022-11-11T04:02:33;3.00;66.50
8422;DHT22;4248;48.196;10.924;2022-11-11T04:05:17;3.00;67.60
8422;DHT22;4248;48.196;10.924;2022-11-11T04:08:02;3.00;67.70
8422;DHT22;4248;48.196;10.924;2022-11-11T04:10:46;2.90;67.10
8422;DHT22;4248;48.196;10.924;2022-11-11T04:13:12;2.90;68.20
8422;DHT22;4248;48.196;10.924;2022-11-11T04:15:56;2.90;68.30
8422;DHT22;4248;48.196;10.924;2022-11-11T04:18:31;2.80;68.40
8422;DHT22;4248;48.196;10.924;2022-11-11T04:21:16;2.80;67.60
8422;DHT22;4248;48.196;10.924;2022-11-11T04:24:00;2.80;68.70
8422;DHT22;4248;48.196;10.924;2022-11-11T04:26:26;2.80;68.80
8422;DHT22;4248;48.196;10.924;2022-11-11T04:28:52;2.70;68.80
8422;DHT22;4248;48.196;10.924;2022-11-11T04:31:36;2.70;68.80
8422;DHT22;4248;48.196;10.924;2022-11-11T04:34:22;2.60;68.80
8422;DHT22;4248;48.196;10.924;2022-11-11T04:36:47;2.60;68.80
8422;DHT22;4248;48.196;10.924;2022-11-11T04:39:13;2.50;68.90
8422;DHT22;4248;48.196;10.924;2022-11-11T04:41:57;2.50;68.00
8422;DHT22;4248;48.196;10.924;2022-11-11T04:44:22;2.60;69.10
8422;DHT22;4248;48.196;10.924;2022-11-11T04:47:06;2.50;68.90
8422;DHT22;4248;48.196;10.924;2022-11-11T04:49:32;2.60;68.90
8422;DHT22;4248;48.196;10.924;2022-11-11T04:51:58;2.50;67.60
8422;DHT22;4248;48.196;10.924;2022-11-11T04:54:42;2.60;68.70
8422;DHT22;4248;48.196;10.924;2022-11-11T04:57:26;2.60;68.50
8422;DHT22;4248;48.196;10.924;2022-11-11T04:59:51;2.60;68.40
8422;DHT22;4248;48.196;10.924;2022-11-11T05:02:17;2.70;67.30
8422;DHT22;4248;48.196;10.924;2022-11-11T05:05:01;2.70;68.30
8422;DHT22;4248;48.196;10.924;2022-11-11T05:07:27;2.70;68.20
8422;DHT22;4248;48.196;10.924;2022-11-11T05:10:11;2.70;68.20
8422;DHT22;4248;48.196;10.924;2022-11-11T05:12:36;2.70;67.10
8422;DHT22;4248;48.196;10.924;2022-11-11T05:15:02;2.70;68.20
8422;DHT22;4248;48.196;10.924;2022-11-11T05:17:46;2.80;68.10
8422;DHT22;4248;48.196;10.924;2022-11-11T05:20:30;2.80;68.10
8422;DHT22;4248;48.196;10.924;2022-11-11T05:23:14;2.80;67.20
8422;DHT22;4248;48.196;10.924;2022-11-11T05:25:40;2.80;68.20
8422;DHT22;4248;48.196;10.924;2022-11-11T05:28:05;2.80;68.20
8422;DHT22;4248;48.196;10.924;2022-11-11T05:30:31;2.80;68.20
8422;DHT22;4248;48.196;10.924;2022-11-11T05:32:57;2.80;67.30
8422;DHT22;4248;48.196;10.924;2022-11-11T05:35:22;2.70;68.30
8422;DHT22;4248;48.196;10.924;2022-11-11T05:37:48;2.70;68.30
8422;DHT22;4248;48.196;10.924;2022-11-11T05:40:34;2.80;68.20
8422;DHT22;4248;48.196;10.924;2022-11-11T05:42:59;2.80;67.00
8422;DHT22;4248;48.196;10.924;2022-11-11T05:45:25;3.00;68.20
8422;DHT22;4248;48.196;10.924;2022-11-11T05:47:50;3.40;68.20
8422;DHT22;4248;48.196;10.924;2022-11-11T05:50:16;3.60;67.80
8422;DHT22;4248;48.196;10.924;2022-11-11T05:52:47;3.40;66.90
8422;DHT22;4248;48.196;10.924;2022-11-11T05:55:14;3.40;68.20
8422;DHT22;4248;48.196;10.924;2022-11-11T05:57:39;3.50;68.50
8422;DHT22;4248;48.196;10.924;2022-11-11T06:00:05;3.40;68.70
8422;DHT22;4248;48.196;10.924;2022-11-11T06:02:31;3.20;67.70
8422;DHT22;4248;48.196;10.924;2022-11-11T06:04:57;3.20;68.90
8422;DHT22;4248;48.196;10.924;2022-11-11T06:07:22;3.20;69.00
8422;DHT22;4248;48.196;10.924;2022-11-11T06:09:48;3.10;69.20
8422;DHT22;4248;48.196;10.924;2022-11-11T06:12:13;3.00;68.20
8422;DHT22;4248;48.196;10.924;2022-11-11T06:14:39;3.00;69.20
8422;DHT22;4248;48.196;10.924;2022-11-11T06:17:05;3.10;69.10
8422;DHT22;4248;48.196;10.924;2022-11-11T06:19:30;3.00;69.20
8422;DHT22;4248;48.196;10.924;2022-11-11T06:21:56;3.10;68.30
8422;DHT22;4248;48.196;10.924;2022-11-11T06:24:22;3.10;69.30
8422;DHT22;4248;48.196;10.924;2022-11-11T06:26:47;3.00;69.40
8422;DHT22;4248;48.196;10.924;2022-11-11T06:29:13;3.00;69.40
8422;DHT22;4248;48.196;10.924;2022-11-11T06:31:38;3.00;68.40
8422;DHT22;4248;48.196;10.924;2022-11-11T06:34:04;3.10;69.50
8422;DHT22;4248;48.196;10.924;2022-11-11T06:36:30;3.50;69.30
8422;DHT22;4248;48.196;10.924;2022-11-11T06:38:55;3.70;68.90
8422;DHT22;4248;48.196;10.924;2022-11-11T06:41:21;3.80;68.90
8422;DHT22;4248;48.196;10.924;2022-11-11T06:43:50;3.70;68.80
8422;DHT22;4248;48.196;10.924;2022-11-11T06:46:23;3.60;69.10
8422;DHT22;4248;48.196;10.924;2022-11-11T06:48:50;3.70;69.20
8422;DHT22;4248;48.196;10.924;2022-11-11T06:51:16;3.60;69.30
8422;DHT22;4248;48.196;10.924;2022-11-11T06:53:42;3.60;69.40
8422;DHT22;4248;48.196;10.924;2022-11-11T06:56:08;3.80;69.40
8422;DHT22;4248;48.196;10.924;2022-11-11T06:58:34;3.80;69.10
8422;DHT22;4248;48.196;10.924;2022-11-11T07:01:04;4.00;68.00
8422;DHT22;4248;48.196;10.924;2022-11-11T07:03:30;4.00;69.00
8422;DHT22;4248;48.196;10.924;2022-11-11T07:05:59;4.00;69.20
8422;DHT22;4248;48.196;10.924;2022-11-11T07:08:25;4.00;69.20
8422;DHT22;4248;48.196;10.924;2022-11-11T07:10:51;4.20;68.20
8422;DHT22;4248;48.196;10.924;2022-11-11T07:13:16;4.30;68.20
8422;DHT22;4248;48.196;10.924;2022-11-11T07:15:43;4.30;68.90
8422;DHT22;4248;48.196;10.924;2022-11-11T07:18:09;4.40;68.60
8422;DHT22;4248;48.196;10.924;2022-11-11T07:20:36;4.50;68.50
8422;DHT22;4248;48.196;10.924;2022-11-11T07:23:03;4.50;67.50
8422;DHT22;4248;48.196;10.924;2022-11-11T07:25:28;4.60;68.60
8422;DHT22;4248;48.196;10.924;2022-11-11T07:27:54;4.80;68.40
8422;DHT22;4248;48.196;10.924;2022-11-11T07:30:20;4.90;68.20
8422;DHT22;4248;48.196;10.924;2022-11-11T07:32:47;4.80;67.00
8422;DHT22;4248;48.196;10.924;2022-11-11T07:35:14;4.80;68.20
8422;DHT22;4248;48.196;10.924;2022-11-11T07:37:40;4.90;68.30
8422;DHT22;4248;48.196;10.924;2022-11-11T07:40:07;4.90;68.20
8422;DHT22;4248;48.196;10.924;2022-11-11T07:42:40;5.00;67.20
8422;DHT22;4248;48.196;10.924;2022-11-11T07:45:07;5.10;68.20
8422;DHT22;4248;48.196;10.924;2022-11-11T07:47:33;5.20;67.90
8422;DHT22;4248;48.196;10.924;2022-11-11T07:50:02;5.30;67.80
8422;DHT22;4248;48.196;10.924;2022-11-11T07:52:28;5.30;66.20
8422;DHT22;4248;48.196;10.924;2022-11-11T07:54:54;5.40;67.00
8422;DHT22;4248;48.196;10.924;2022-11-11T07:57:19;5.40;66.70
8422;DHT22;4248;48.196;10.924;2022-11-11T07:59:45;5.50;66.70
8422;DHT22;4248;48.196;10.924;2022-11-11T08:02:12;5.70;65.80
8422;DHT22;4248;48.196;10.924;2022-11-11T08:04:38;5.70;66.80
8422;DHT22;4248;48.196;10.924;2022-11-11T08:07:03;5.80;66.90
8422;DHT22;4248;48.196;10.924;2022-11-11T08:09:29;6.00;65.80
8422;DHT22;4248;48.196;10.924;2022-11-11T08:11:55;6.10;65.70
8422;DHT22;4248;48.196;10.924;2022-11-11T08:14:39;6.10;66.60
8422;DHT22;4248;48.196;10.924;2022-11-11T08:17:04;6.10;66.40
8422;DHT22;4248;48.196;10.924;2022-11-11T08:19:30;6.20;66.30
8422;DHT22;4248;48.196;10.924;2022-11-11T08:21:55;6.30;65.10
8422;DHT22;4248;48.196;10.924;2022-11-11T08:24:21;6.40;66.30
8422;DHT22;4248;48.196;10.924;2022-11-11T08:26:47;6.40;66.30
8422;DHT22;4248;48.196;10.924;2022-11-11T08:29:13;6.40;66.50
8422;DHT22;4248;48.196;10.924;2022-11-11T08:31:39;6.40;65.50
8422;DHT22;4248;48.196;10.924;2022-11-11T08:34:05;6.40;66.70
8422;DHT22;4248;48.196;10.924;2022-11-11T08:36:30;6.40;66.80
8422;DHT22;4248;48.196;10.924;2022-11-11T08:38:56;6.50;67.00
8422;DHT22;4248;48.196;10.924;2022-11-11T08:41:21;6.60;67.00
8422;DHT22;4248;48.196;10.924;2022-11-11T08:43:51;6.60;66.90
8422;DHT22;4248;48.196;10.924;2022-11-11T08:46:17;6.70;66.90
8422;DHT22;4248;48.196;10.924;2022-11-11T08:48:43;6.70;66.90
8422;DHT22;4248;48.196;10.924;2022-11-11T08:51:08;6.70;66.90
8422;DHT22;4248;48.196;10.924;2022-11-11T08:53:34;6.70;66.80
8422;DHT22;4248;48.196;10.924;2022-11-11T08:56:01;6.80;66.90
8422;DHT22;4248;48.196;10.924;2022-11-11T08:58:28;6.90;67.10
8422;DHT22;4248;48.196;10.924;2022-11-11T09:00:53;7.00;66.20
8422;DHT22;4248;48.196;10.924;2022-11-11T09:03:19;7.00;67.00
8422;DHT22;4248;48.196;10.924;2022-11-11T09:05:44;7.10;67.00
8422;DHT22;4248;48.196;10.924;2022-11-11T09:08:11;7.20;67.10
8422;DHT22;4248;48.196;10.924;2022-11-11T09:10:37;7.30;67.00
8422;DHT22;4248;48.196;10.924;2022-11-11T09:13:03;7.30;66.00
8422;DHT22;4248;48.196;10.924;2022-11-11T09:15:29;7.40;67.20
8422;DHT22;4248;48.196;10.924;2022-11-11T09:17:54;7.50;67.20
8422;DHT22;4248;48.196;10.924;2022-11-11T09:20:21;7.70;67.30
8422;DHT22;4248;48.196;10.924;2022-11-11T09:22:47;7.90;65.80
8422;DHT22;4248;48.196;10.924;2022-11-11T09:25:14;8.10;66.80
8422;DHT22;4248;48.196;10.924;2022-11-11T09:27:40;8.30;66.70
8422;DHT22;4248;48.196;10.924;2022-11-11T09:30:06;8.50;66.60
8422;DHT22;4248;48.196;10.924;2022-11-11T09:32:32;8.80;65.30
8422;DHT22;4248;48.196;10.924;2022-11-11T09:34:58;8.90;66.20
8422;DHT22;4248;48.196;10.924;2022-11-11T09:37:25;9.20;65.80
8422;DHT22;4248;48.196;10.924;2022-11-11T09:39:50;9.30;65.40
8422;DHT22;4248;48.196;10.924;2022-11-11T09:47:38;9.60;65.10
8422;DHT22;4248;48.196;10.924;2022-11-11T09:50:23;9.80;65.20
8422;DHT22;4248;48.196;10.924;2022-11-11T09:52:57;9.90;64.30
8422;DHT22;4248;48.196;10.924;2022-11-11T09:55:40;10.00;64.50
8422;DHT22;4248;48.196;10.924;2022-11-11T10:01:19;10.20;63.60
8422;DHT22;4248;48.196;10.924;2022-11-11T10:06:38;10.10;64.50
8422;DHT22;4248;48.196;10.924;2022-11-11T10:14:39;10.10;65.20
8422;DHT22;4248;48.196;10.924;2022-11-11T10:17:28;10.20;65.10
8422;DHT22;4248;48.196;10.924;2022-11-11T10:20:15;10.20;64.70
8422;DHT22;4248;48.196;10.924;2022-11-11T10:22:44;10.30;63.70
8422;DHT22;4248;48.196;10.924;2022-11-11T10:27:43;10.50;64.90
8422;DHT22;4248;48.196;10.924;2022-11-11T10:30:32;10.60;65.00
8422;DHT22;4248;48.196;10.924;2022-11-11T10:33:03;10.70;64.00
8422;DHT22;4248;48.196;10.924;2022-11-11T10:35:30;10.80;64.70
8422;DHT22;4248;48.196;10.924;2022-11-11T10:40:49;11.20;63.60
8422;DHT22;4248;48.196;10.924;2022-11-11T10:43:27;11.30;63.50
8422;DHT22;4248;48.196;10.924;2022-11-11T10:49:15;11.50;63.10
8422;DHT22;4248;48.196;10.924;2022-11-11T10:54:32;11.80;62.40
8422;DHT22;4248;48.196;10.924;2022-11-11T10:57:31;11.80;62.50
8422;DHT22;4248;48.196;10.924;2022-11-11T11:00:08;11.90;62.30
8422;DHT22;4248;48.196;10.924;2022-11-11T11:08:06;12.10;62.30
8422;DHT22;4248;48.196;10.924;2022-11-11T11:16:07;12.20;62.90
8422;DHT22;4248;48.196;10.924;2022-11-11T11:18:35;12.30;61.60
8422;DHT22;4248;48.196;10.924;2022-11-11T11:21:06;12.20;61.80
8422;DHT22;4248;48.196;10.924;2022-11-11T11:23:45;12.20;63.10
8422;DHT22;4248;48.196;10.924;2022-11-11T11:26:13;12.20;61.50
8422;DHT22;4248;48.196;10.924;2022-11-11T11:28:58;12.30;61.90
8422;DHT22;4248;48.196;10.924;2022-11-11T11:31:40;12.20;61.30
8422;DHT22;4248;48.196;10.924;2022-11-11T11:34:07;12.20;61.10
8422;DHT22;4248;48.196;10.924;2022-11-11T11:36:33;12.20;61.30
8422;DHT22;4248;48.196;10.924;2022-11-11T11:38:58;12.20;61.60
8422;DHT22;4248;48.196;10.924;2022-11-11T11:41:43;12.20;61.30
8422;DHT22;4248;48.196;10.924;2022-11-11T11:44:37;12.20;61.00
8422;DHT22;4248;48.196;10.924;2022-11-11T11:52:56;12.30;60.40
8422;DHT22;4248;48.196;10.924;2022-11-11T11:55:50;12.40;60.50
8422;DHT22;4248;48.196;10.924;2022-11-11T11:58:36;12.40;60.00
8422;DHT22;4248;48.196;10.924;2022-11-11T12:01:32;12.50;60.00
8422;DHT22;4248;48.196;10.924;2022-11-11T12:18:05;13.30;57.70
8422;DHT22;4248;48.196;10.924;2022-11-11T12:20:36;13.40;56.90
8422;DHT22;4248;48.196;10.924;2022-11-11T12:32:25;13.30;57.50
8422;DHT22;4248;48.196;10.924;2022-11-11T12:38:00;13.40;57.40
8422;DHT22;4248;48.196;10.924;2022-11-11T12:45:58;13.20;57.80
8422;DHT22;4248;48.196;10.924;2022-11-11T12:49:02;13.10;58.10
8422;DHT22;4248;48.196;10.924;2022-11-11T12:53:59;13.10;58.20
8422;DHT22;4248;48.196;10.924;2022-11-11T12:56:37;13.20;57.60
8422;DHT22;4248;48.196;10.924;2022-11-11T12:59:23;13.30;57.20
8422;DHT22;4248;48.196;10.924;2022-11-11T13:02:01;13.30;56.90
8422;DHT22;4248;48.196;10.924;2022-11-11T13:04:57;12.90;56.80
8422;DHT22;4248;48.196;10.924;2022-11-11T13:15:35;12.80;57.60
8422;DHT22;4248;48.196;10.924;2022-11-11T13:18:01;12.90;57.90
8422;DHT22;4248;48.196;10.924;2022-11-11T13:23:11;13.00;57.10
8422;DHT22;4248;48.196;10.924;2022-11-11T13:25:45;13.00;57.10
8422;DHT22;4248;48.196;10.924;2022-11-11T13:28:24;12.90;57.20
8422;DHT22;4248;48.196;10.924;2022-11-11T13:33:24;12.70;57.60
8422;DHT22;4248;48.196;10.924;2022-11-11T13:35:59;12.70;57.50
8422;DHT22;4248;48.196;10.924;2022-11-11T13:41:04;12.40;57.20
8422;DHT22;4248;48.196;10.924;2022-11-11T13:43:42;12.40;58.20
8422;DHT22;4248;48.196;10.924;2022-11-11T13:48:54;12.10;59.00
8422;DHT22;4248;48.196;10.924;2022-11-11T13:53:52;12.00;59.10
8422;DHT22;4248;48.196;10.924;2022-11-11T13:56:35;12.00;59.10
8422;DHT22;4248;48.196;10.924;2022-11-11T13:59:01;11.90;58.90
8422;DHT22;4248;48.196;10.924;2022-11-11T14:01:38;11.90;58.90
8422;DHT22;4248;48.196;10.924;2022-11-11T14:04:07;11.80;58.80
8422;DHT22;4248;48.196;10.924;2022-11-11T14:08:59;11.80;59.10
8422;DHT22;4248;48.196;10.924;2022-11-11T14:13:55;11.70;59.10
8422;DHT22;4248;48.196;10.924;2022-11-11T14:21:51;11.50;59.60
8422;DHT22;4248;48.196;10.924;2022-11-11T14:24:45;11.40;59.90
8422;DHT22;4248;48.196;10.924;2022-11-11T14:29:48;11.30;60.40
8422;DHT22;4248;48.196;10.924;2022-11-11T14:40:31;11.10;60.50
8422;DHT22;4248;48.196;10.924;2022-11-11T14:42:59;11.00;59.70
8422;DHT22;4248;48.196;10.924;2022-11-11T14:47:54;10.80;61.40
8422;DHT22;4248;48.196;10.924;2022-11-11T14:53:00;10.70;60.80
8422;DHT22;4248;48.196;10.924;2022-11-11T14:55:29;10.70;61.90
8422;DHT22;4248;48.196;10.924;2022-11-11T15:03:30;10.50;60.90
8422;DHT22;4248;48.196;10.924;2022-11-11T15:27:44;9.90;63.50
8422;DHT22;4248;48.196;10.924;2022-11-11T15:30:15;9.80;63.80
8422;DHT22;4248;48.196;10.924;2022-11-11T15:35:41;9.50;64.30
8422;DHT22;4248;48.196;10.924;2022-11-11T15:38:12;9.40;64.30
8422;DHT22;4248;48.196;10.924;2022-11-11T15:40:50;9.30;64.50
8422;DHT22;4248;48.196;10.924;2022-11-11T15:43:24;9.20;64.70
8422;DHT22;4248;48.196;10.924;2022-11-11T15:45:56;9.10;64.60
8422;DHT22;4248;48.196;10.924;2022-11-11T15:48:26;9.00;64.70
8422;DHT22;4248;48.196;10.924;2022-11-11T15:50:53;8.90;63.90
8422;DHT22;4248;48.196;10.924;2022-11-11T15:53:25;8.90;64.80
8422;DHT22;4248;48.196;10.924;2022-11-11T15:55:53;8.80;65.10
8422;DHT22;4248;48.196;10.924;2022-11-11T15:58:28;8.70;65.30
8422;DHT22;4248;48.196;10.924;2022-11-11T16:00:54;8.50;65.20
8422;DHT22;4248;48.196;10.924;2022-11-11T16:03:34;8.50;66.30
8422;DHT22;4248;48.196;10.924;2022-11-11T16:06:10;8.40;66.50
8422;DHT22;4248;48.196;10.924;2022-11-11T16:08:40;8.30;66.70
8422;DHT22;4248;48.196;10.924;2022-11-11T16:11:12;8.30;66.10
8422;DHT22;4248;48.196;10.924;2022-11-11T16:13:41;8.20;67.00
8422;DHT22;4248;48.196;10.924;2022-11-11T16:16:15;8.20;67.20
8422;DHT22;4248;48.196;10.924;2022-11-11T16:18:53;8.10;67.20
8422;DHT22;4248;48.196;10.924;2022-11-11T16:23:48;8.00;67.60
8422;DHT22;4248;48.196;10.924;2022-11-11T16:26:14;7.90;67.70
8422;DHT22;4248;48.196;10.924;2022-11-11T16:28:42;7.80;67.80
8422;DHT22;4248;48.196;10.924;2022-11-11T16:37:09;7.60;68.60
8422;DHT22;4248;48.196;10.924;2022-11-11T16:39:36;7.60;68.60
8422;DHT22;4248;48.196;10.924;2022-11-11T16:42:16;7.50;68.60
8422;DHT22;4248;48.196;10.924;2022-11-11T16:44:52;7.50;68.60
8422;DHT22;4248;48.196;10.924;2022-11-11T16:47:40;7.40;70.00
8422;DHT22;4248;48.196;10.924;2022-11-11T16:50:12;7.40;69.30
8422;DHT22;4248;48.196;10.924;2022-11-11T16:55:30;7.30;69.70
8422;DHT22;4248;48.196;10.924;2022-11-11T16:58:08;7.30;69.70
8422;DHT22;4248;48.196;10.924;2022-11-11T17:00:35;7.10;69.60
8422;DHT22;4248;48.196;10.924;2022-11-11T17:03:22;7.00;68.80
8422;DHT22;4248;48.196;10.924;2022-11-11T17:08:34;7.00;70.00
8422;DHT22;4248;48.196;10.924;2022-11-11T17:11:01;6.90;68.90
8422;DHT22;4248;48.196;10.924;2022-11-11T17:13:28;6.90;70.10
8422;DHT22;4248;48.196;10.924;2022-11-11T17:15:55;6.90;70.20
8422;DHT22;4248;48.196;10.924;2022-11-11T17:18:23;6.70;70.20
8422;DHT22;4248;48.196;10.924;2022-11-11T17:20:48;6.50;69.00
8422;DHT22;4248;48.196;10.924;2022-11-11T17:23:16;6.50;70.10
8422;DHT22;4248;48.196;10.924;2022-11-11T17:25:42;6.50;70.00
8422;DHT22;4248;48.196;10.924;2022-11-11T17:28:08;6.40;69.70
8422;DHT22;4248;48.196;10.924;2022-11-11T17:30:35;6.40;69.60
8422;DHT22;4248;48.196;10.924;2022-11-11T17:33:00;6.30;68.70
8422;DHT22;4248;48.196;10.924;2022-11-11T17:35:26;6.30;69.70
8422;DHT22;4248;48.196;10.924;2022-11-11T17:37:52;6.20;69.70
8422;DHT22;4248;48.196;10.924;2022-11-11T17:40:17;6.20;68.70
8422;DHT22;4248;48.196;10.924;2022-11-11T17:42:43;6.10;68.70
8422;DHT22;4248;48.196;10.924;2022-11-11T17:45:09;6.10;69.80
8422;DHT22;4248;48.196;10.924;2022-11-11T17:47:34;6.10;69.80
8422;DHT22;4248;48.196;10.924;2022-11-11T17:50:00;6.10;69.70
8422;DHT22;4248;48.196;10.924;2022-11-11T17:52:26;6.10;68.80
8422;DHT22;4248;48.196;10.924;2022-11-11T17:54:51;6.00;69.80
8422;DHT22;4248;48.196;10.924;2022-11-11T17:57:18;6.00;69.60
8422;DHT22;4248;48.196;10.924;2022-11-11T17:59:43;6.10;68.50
8422;DHT22;4248;48.196;10.924;2022-11-11T18:02:12;6.10;68.40
8422;DHT22;4248;48.196;10.924;2022-11-11T18:04:39;6.10;69.50
8422;DHT22;4248;48.196;10.924;2022-11-11T18:07:05;6.00;69.30
8422;DHT22;4248;48.196;10.924;2022-11-11T18:09:31;6.00;69.30
8422;DHT22;4248;48.196;10.924;2022-11-11T18:11:57;5.90;68.30
8422;DHT22;4248;48.196;10.924;2022-11-11T18:14:23;6.00;69.40
8422;DHT22;4248;48.196;10.924;2022-11-11T18:16:48;5.90;69.40
8422;DHT22;4248;48.196;10.924;2022-11-11T18:19:14;5.90;69.40
8422;DHT22;4248;48.196;10.924;2022-11-11T18:21:40;5.90;69.40
8422;DHT22;4248;48.196;10.924;2022-11-11T18:24:10;5.90;69.20
8422;DHT22;4248;48.196;10.924;2022-11-11T18:26:39;5.90;69.10
8422;DHT22;4248;48.196;10.924;2022-11-11T18:29:06;5.80;69.00
8422;DHT22;4248;48.196;10.924;2022-11-11T18:31:32;5.80;69.00
8422;DHT22;4248;48.196;10.924;2022-11-11T18:33:59;5.80;69.10
8422;DHT22;4248;48.196;10.924;2022-11-11T18:36:25;5.80;68.90
8422;DHT22;4248;48.196;10.924;2022-11-11T18:38:50;5.80;68.90
8422;DHT22;4248;48.196;10.924;2022-11-11T18:41:18;5.80;69.00
8422;DHT22;4248;48.196;10.924;2022-11-11T18:43:46;5.80;69.10
8422;DHT22;4248;48.196;10.924;2022-11-11T18:46:17;5.80;69.30
8422;DHT22;4248;48.196;10.924;2022-11-11T18:48:43;5.70;69.60
8422;DHT22;4248;48.196;10.924;2022-11-11T18:51:12;5.60;69.10
8422;DHT22;4248;48.196;10.924;2022-11-11T18:53:39;5.70;70.30
8422;DHT22;4248;48.196;10.924;2022-11-11T18:56:17;5.60;70.20
8422;DHT22;4248;48.196;10.924;2022-11-11T18:58:47;5.60;70.30
8422;DHT22;4248;48.196;10.924;2022-11-11T19:01:15;5.50;69.70
8422;DHT22;4248;48.196;10.924;2022-11-11T19:03:51;5.50;70.90
8422;DHT22;4248;48.196;10.924;2022-11-11T19:06:17;5.50;70.90
8422;DHT22;4248;48.196;10.924;2022-11-11T19:08:44;5.60;70.70
8422;DHT22;4248;48.196;10.924;2022-11-11T19:11:10;5.90;69.00
8422;DHT22;4248;48.196;10.924;2022-11-11T19:13:36;6.00;69.90
8422;DHT22;4248;48.196;10.924;2022-11-11T19:16:09;6.00;69.50